Flight Track Log - Related Links

Times and Time Zones

All times are in EST time to prevent confusion due to time zone crossing. See the JIA4751 flight status page for this flight to view local times or setup timezone preferences in your user account.

Time Position Orientation Groundspeed Altitude Reporting Facility
EST Latitude Longitude Course Direction KTS MPH feet Rate Location/Type
Sat 03:36:28 PM 38.8000 -77.0333 228° Southwest 176 203 2,800  Level Potomac TRACON
Sat 03:37:23 PM 38.7500 -77.0333 180° South 216 249 4,600 1,091 Climbing Potomac TRACON
Sat 03:38:00 PM 38.6475 -77.3268 225° Southwest  Level Estimated
Sat 03:38:29 PM 38.7167 -77.1000 237° Southwest 250 288 5,000  Level Potomac TRACON
Sat 03:39:00 PM 38.5644 -77.4013 215° Southwest  Level FlightAware Approximate
Sat 03:39:29 PM 38.6833 -77.1833 243° Southwest 252 290 7,600  Level Potomac TRACON
Sat 03:40:00 PM 38.4962 -77.4973 237° Southwest  Level Estimated
Sat 03:41:00 PM 38.4279 -77.5931 228° Southwest  Level Estimated
Sat 03:41:42 PM 38.5778 -77.3286 227° Southwest 263 303 12,900  Level Washington Center
Sat 03:42:43 PM 38.5225 -77.4014 226° Southwest 275 316 14,900 1,918 Climbing Washington Center
Sat 03:43:44 PM 38.4628 -77.4769 225° Southwest 295 339 16,800 1,613 Climbing Washington Center
Sat 03:44:42 PM 38.4181 -77.5447 230° Southwest 307 353 18,100 1,210 Climbing Washington Center
Sat 03:45:43 PM 38.3539 -77.6383 229° Southwest 314 361 19,200 1,488 Climbing Washington Center
Sat 03:46:43 PM 38.2983 -77.7242 231° Southwest 314 361 21,100 1,513 Climbing Washington Center
Sat 03:47:42 PM 38.2339 -77.8175 229° Southwest 319 367 22,200 1,513 Climbing Washington Center
Sat 03:48:42 PM 38.1722 -77.8817 219° Southwest 319 367 24,100 1,339 Climbing Washington Center
Sat 03:49:43 PM 38.0919 -77.9425 211° Southwest 325 374 24,900 694 Climbing Washington Center
Sat 03:50:43 PM 37.9989 -78.0081 209° Southwest 346 398 25,500 744 Climbing Washington Center
Sat 03:51:44 PM 37.9181 -78.0844 217° Southwest 357 411 26,400 908 Climbing Washington Center
Sat 03:52:42 PM 37.8431 -78.1689 222° Southwest 362 417 27,300 763 Climbing Washington Center
Sat 03:53:42 PM 37.7811 -78.2456 224° Southwest 357 411 27,900 595 Climbing Washington Center
Sat 03:54:43 PM 37.7039 -78.3322 222° Southwest 357 411 28,500 541 Climbing Washington Center
Sat 03:55:44 PM 37.6269 -78.4158 221° Southwest 362 417 29,000 555 Climbing Washington Center
Sat 03:56:42 PM 37.5414 -78.5069 220° Southwest 367 422 29,600 555 Climbing Washington Center
Sat 03:57:43 PM 37.4642 -78.5931 222° Southwest 372 428 30,100 500 Climbing Washington Center
Sat 03:58:42 PM 37.3847 -78.6786 221° Southwest 372 428 30,600 504 Climbing Washington Center
Sat 03:59:42 PM 37.3056 -78.7592 219° Southwest 372 428 31,100 496 Climbing Washington Center
Sat 04:00:43 PM 37.2403 -78.8581 230° Southwest 367 422 31,600 492 Climbing Washington Center
Sat 04:01:44 PM 37.1836 -78.9417 230° Southwest 367 422 32,100 504 Climbing Washington Center
Sat 04:02:42 PM 37.1164 -79.0353 228° Southwest 367 422 32,600 508 Climbing Washington Center
Sat 04:03:42 PM 37.0511 -79.1286 229° Southwest 367 422 33,100 496 Climbing Washington Center
Sat 04:04:43 PM 36.9878 -79.2219 230° Southwest 367 422 33,600 450 Climbing Washington Center
Sat 04:05:42 PM 36.9244 -79.3125 229° Southwest 362 417 34,000 155 Climbing Washington Center
Sat 04:07:18 PM 36.8136 -79.4675 228° Southwest 353 406 34,000  Level Atlanta Center
Sat 04:08:18 PM 36.7464 -79.5647 229° Southwest 359 413 34,000  Level Atlanta Center
Sat 04:09:18 PM 36.6789 -79.6617 229° Southwest 366 421 34,000  Level Atlanta Center
Sat 04:10:18 PM 36.6092 -79.7586 228° Southwest 371 427 34,000  Level Atlanta Center
Sat 04:11:18 PM 36.5417 -79.8553 229° Southwest 371 427 34,000  Level Atlanta Center
Sat 04:12:18 PM 36.4781 -79.9464 229° Southwest 371 427 34,000  Level Atlanta Center
Sat 04:13:18 PM 36.4083 -80.0428 228° Southwest 371 427 34,000  Level Atlanta Center
Sat 04:14:18 PM 36.3406 -80.1417 230° Southwest 376 433 34,000  Level Atlanta Center
Sat 04:15:18 PM 36.2686 -80.2403 228° Southwest 376 433 34,000  Level Atlanta Center
Sat 04:16:18 PM 36.1964 -80.3364 227° Southwest 376 433 34,000  Level Atlanta Center
Sat 04:17:18 PM 36.1203 -80.4428 228° Southwest 376 433 34,000  Level Atlanta Center
Sat 04:18:18 PM 36.0503 -80.5433 229° Southwest 381 438 34,000  Level Atlanta Center
Sat 04:19:18 PM 35.9881 -80.6333 230° Southwest 381 438 34,000  Level Atlanta Center
Sat 04:20:18 PM 35.9156 -80.7311 228° Southwest 387 445 34,000  Level Atlanta Center
Sat 04:21:18 PM 35.8453 -80.8314 229° Southwest 387 445 34,000  Level Atlanta Center
Sat 04:22:18 PM 35.7708 -80.9317 228° Southwest 393 452 34,000  Level Atlanta Center
Sat 04:23:18 PM 35.6981 -81.0289 227° Southwest 393 452 34,000  Level Atlanta Center
Sat 04:24:18 PM 35.6172 -81.1367 227° Southwest 393 452 34,000  Level Atlanta Center
Sat 04:25:18 PM 35.5483 -81.2286 227° Southwest 399 459 34,000  Level Atlanta Center
Sat 04:26:18 PM 35.4675 -81.3433 229° Southwest 406 467 34,000  Level Atlanta Center
Sat 04:27:18 PM 35.3925 -81.4403 227° Southwest 406 467 34,000  Level Atlanta Center
Sat 04:28:18 PM 35.3150 -81.5342 225° Southwest 393 452 34,000  Level Atlanta Center
Sat 04:30:18 PM 35.1622 -81.7217 225° Southwest 388 447 34,000  Level Atlanta Center
Sat 04:31:18 PM 35.0867 -81.8153 225° Southwest 388 447 34,000  Level Atlanta Center
Sat 04:32:18 PM 35.0092 -81.9111 225° Southwest 388 447 34,000  Level Atlanta Center
Sat 04:33:18 PM 34.9336 -82.0042 225° Southwest 393 452 34,000  Level Atlanta Center
Sat 04:34:18 PM 34.8661 -82.0844 224° Southwest 387 445 34,000  Level Atlanta Center
Sat 04:35:18 PM 34.7881 -82.1772 224° Southwest 392 451 34,000  Level Atlanta Center
Sat 04:36:18 PM 34.7144 -82.2700 226° Southwest 392 451 34,000  Level Atlanta Center
Sat 04:37:18 PM 34.6364 -82.3625 224° Southwest 392 451 34,000  Level Atlanta Center
Sat 04:38:18 PM 34.5583 -82.4547 224° Southwest 397 457 34,000  Level Atlanta Center
Sat 04:39:18 PM 34.4822 -82.5494 226° Southwest 397 457 34,000  Level Atlanta Center
Sat 04:40:18 PM 34.3958 -82.6492 224° Southwest 397 457 34,000  Level Atlanta Center
Sat 04:41:18 PM 34.3156 -82.7436 224° Southwest 397 457 34,000  Level Atlanta Center
Sat 04:42:18 PM 34.2494 -82.8275 226° Southwest 392 451 34,000  Level Atlanta Center
Sat 04:43:18 PM 34.1711 -82.9164 223° Southwest 392 451 34,000  Level Atlanta Center
Sat 04:44:18 PM 34.0906 -83.0128 225° Southwest 397 457 34,000  Level Atlanta Center
Sat 04:45:18 PM 34.0119 -83.1017 223° Southwest 397 457 34,000  Level Atlanta Center
Sat 04:46:18 PM 33.9353 -83.1950 225° Southwest 397 457 34,000  Level Atlanta Center
Sat 04:47:18 PM 33.8567 -83.2908 225° Southwest 397 457 34,000  Level Atlanta Center
Sat 04:48:18 PM 33.7697 -83.3942 225° Southwest 397 457 34,000  Level Atlanta Center
Sat 04:49:18 PM 33.6886 -83.4844 223° Southwest 402 463 34,000  Level Atlanta Center
Sat 04:50:18 PM 33.6097 -83.5775 225° Southwest 396 456 34,000  Level Atlanta Center
Sat 04:51:18 PM 33.5306 -83.6700 224° Southwest 396 456 34,000  Level Atlanta Center
Sat 04:52:18 PM 33.4494 -83.7625 224° Southwest 402 463 34,000  Level Atlanta Center
Sat 04:53:18 PM 33.3703 -83.8547 224° Southwest 396 456 34,000  Level Atlanta Center
Sat 04:54:18 PM 33.2911 -83.9469 224° Southwest 396 456 34,000  Level Atlanta Center
Sat 04:55:18 PM 33.2203 -84.0314 225° Southwest 391 450 34,000  Level Atlanta Center
Sat 04:56:18 PM 33.1408 -84.1206 223° Southwest 391 450 34,000  Level Atlanta Center
Sat 04:57:18 PM 33.0636 -84.2122 225° Southwest 396 456 34,000  Level Atlanta Center
Sat 04:58:18 PM 32.9842 -84.3064 225° Southwest 396 456 34,000  Level Atlanta Center
Sat 04:59:18 PM 32.9044 -84.3925 222° Southwest 396 456 34,000  Level Atlanta Center
Sat 05:00:18 PM 32.8186 -84.4911 224° Southwest 396 456 34,000  Level Atlanta Center
Sat 05:01:18 PM 32.7494 -84.5697 224° Southwest 391 450 34,000  Level Atlanta Center
Sat 05:02:18 PM 32.6697 -84.6606 224° Southwest 391 450 34,000  Level Atlanta Center
Sat 05:03:18 PM 32.5878 -84.7514 223° Southwest 396 456 34,000  Level Atlanta Center
Sat 05:04:18 PM 32.5058 -84.8369 221° Southwest 396 456 34,000  Level Atlanta Center
Sat 05:05:18 PM 32.4239 -84.9297 224° Southwest 396 456 34,000 -600 Level Atlanta Center
Sat 05:06:18 PM 32.3397 -85.0222 223° Southwest 401 461 32,800 -1,350 Descending Atlanta Center
Sat 05:07:18 PM 32.2489 -85.1267 224° Southwest 426 490 31,300 -1,500 Descending Atlanta Center
Sat 05:08:18 PM 32.1583 -85.2239 222° Southwest 442 509 29,800 -1,500 Descending Atlanta Center
Sat 05:09:18 PM 32.0719 -85.3231 224° Southwest 442 509 28,300 -1,482 Descending Atlanta Center
Sat 05:11:08 PM 31.9122 -85.4992 223° Southwest 416 479 25,600 -1,482 Descending Jacksonville Center
Sat 05:12:08 PM 31.8244 -85.5944 223° Southwest 416 479 24,100 -800 Descending Jacksonville Center
Sat 05:13:08 PM 31.7389 -85.6897 223° Southwest 416 479 24,000 -50 Descending Jacksonville Center
Sat 05:14:08 PM 31.6556 -85.7822 223° Southwest 416 479 24,000  Level Jacksonville Center
Sat 05:15:08 PM 31.5697 -85.8747 223° Southwest 416 479 24,000  Level Jacksonville Center
Sat 05:16:08 PM 31.5086 -85.9872 238° Southwest 416 479 24,000 -450 Level Jacksonville Center
Sat 05:17:08 PM 31.4475 -86.0997 238° Southwest 416 479 23,100 -1,250 Descending Jacksonville Center
Sat 05:18:08 PM 31.3861 -86.2069 236° Southwest 409 471 21,500 -1,550 Descending Jacksonville Center
Sat 05:19:08 PM 31.3292 -86.3097 237° Southwest 396 456 20,000 -1,500 Descending Jacksonville Center
Sat 05:20:08 PM 31.2764 -86.4122 239° Southwest 382 440 18,500 -1,300 Descending Jacksonville Center
Sat 05:21:08 PM 31.2236 -86.5072 237° Southwest 371 427 17,400 -1,348 Descending Jacksonville Center
Sat 05:21:37 PM 31.1928 -86.5597 236° Southwest 351 404 16,500 -1,500 Descending Jacksonville Center
Sat 05:22:08 PM 31.1708 -86.6025 239° Southwest 360 414 15,900 -1,500 Descending Jacksonville Center
Sat 05:22:37 PM 31.1397 -86.6594 237° Southwest 346 398 15,000 -1,500 Descending Jacksonville Center
Sat 05:23:08 PM 31.1133 -86.7044 236° Southwest 360 414 14,400 -1,475 Descending Jacksonville Center
Sat 05:23:38 PM 31.0892 -86.7494 238° Southwest 342 394 13,500 -1,500 Descending Jacksonville Center
Sat 05:24:08 PM 31.0606 -86.7944 233° Southwest 348 400 12,900 -1,574 Descending Jacksonville Center
Sat 05:24:39 PM 31.0339 -86.8467 239° Southwest 338 389 11,900 -1,400 Descending Jacksonville Center
Sat 05:25:08 PM 31.0125 -86.8675 220° Southwest 340 391 11,500 -1,400 Descending Jacksonville Center
Sat 05:25:39 PM 30.9653 -86.9019 212° Southwest 298 343 10,500 -1,500 Descending Jacksonville Center
Sat 05:26:08 PM 30.9439 -86.9206 217° Southwest 312 359 10,000 -1,869 Descending Jacksonville Center
Sat 05:26:40 PM 30.8967 -86.9594 215° Southwest 280 322 8,600 -1,900 Descending Jacksonville Center
Sat 05:27:08 PM 30.8756 -86.9708 205° Southwest 297 342 8,100 -1,800 Descending Jacksonville Center
Sat 05:27:40 PM 30.8347 -87.0053 216° Southwest 275 316 6,800 -1,900 Descending Jacksonville Center
Sat 05:28:08 PM 30.8133 -87.0214 213° Southwest 291 335 6,200 -1,881 Descending Jacksonville Center
Sat 05:28:47 PM 30.7642 -87.0578 212° Southwest 263 303 4,700 -1,700 Descending Jacksonville Center
Sat 05:29:08 PM 30.7514 -87.0669 212° Southwest 285 328 4,500 -1,574 Descending Jacksonville Center
Sat 05:29:48 PM 30.7042 -87.1058 215° Southwest 253 291 3,100 -1,600 Descending Jacksonville Center
Sat 05:30:08 PM 30.6914 -87.1125 204° Southwest 274 315 2,900 -1,400 Descending Jacksonville Center
Sat 05:30:48 PM 30.6442 -87.1492 214° Southwest 257 296 1,700 -713 Descending Jacksonville Center
Sat 05:31:49 PM 30.5928 -87.1903 215° Southwest 190 219 1,700 -99 Level Jacksonville Center
Sat 05:32:49 PM 30.5483 -87.2100 201° Southwest 163 188 1,500 -496 Descending Jacksonville Center
Sat 05:33:50 PM 30.5069 -87.2008 169° South 144 166 700 -787 Descending Jacksonville Center

Login

Don't have an account? Register now (free) for customized features, flight alerts, and more!